Time;durP1;ratioP1;P1;durP2;ratioP2;P2;SDS_P1;SDS_P2;PMS_P1;PMS_P2;Temp;Humidity;BMP_temperature;BMP_pressure;BME280_temperature;BME280_humidity;BME280_pressure;Samples;Min_cycle;Max_cycle;Signal;HPM_P1;HPM_P2
2021/12/23 00:01:47;;;;;;;3.30;1.90;;;;;;;;;;5030473;28;20021;-61
2021/12/23 00:04:14;;;;;;;3.30;1.90;;;;;;;;;;5028103;28;20487;-61
2021/12/23 00:06:44;;;;;;;5.67;2.00;;;;;;;;;;5027890;28;20036;-61
2021/12/23 00:09:11;;;;;;;5.67;2.00;;;;;;;;;;5027817;28;20422;-61
2021/12/23 00:11:38;;;;;;;4.73;1.97;;;;;;;;;;5029697;28;20476;-61
2021/12/23 00:14:07;;;;;;;3.73;1.67;;;;;;;;;;5033190;28;20392;-61
2021/12/23 00:16:44;;;;;;;11.33;2.10;;;;;;;;;;5032852;28;20492;-61
2021/12/23 00:19:23;;;;;;;6.43;2.30;;;;;;;;;;5033267;28;20028;-61
2021/12/23 00:24:39;;;;;;;14.90;3.90;;;;;;;;;;5029112;28;20087;-61
2021/12/23 00:27:06;;;;;;;7.03;3.27;;;;;;;;;;5027663;28;20018;-61
2021/12/23 00:29:34;;;;;;;8.83;3.30;;;;;;;;;;5027500;28;20034;-62
2021/12/23 00:32:05;;;;;;;11.27;3.60;;;;;;;;;;5027563;28;20030;-61
2021/12/23 00:34:32;;;;;;;7.37;3.30;;;;;;;;;;5030482;28;20025;-61
2021/12/23 00:37:01;;;;;;;10.40;3.40;;;;;;;;;;5032880;28;20024;-61
2021/12/23 00:39:29;;;;;;;10.73;2.80;;;;;;;;;;5032518;28;20036;-61
2021/12/23 00:42:05;;;;;;;7.47;3.60;;;;;;;;;;5032973;28;20022;-61
2021/12/23 00:44:32;;;;;;;8.67;2.73;;;;;;;;;;5032827;28;20042;-61
2021/12/23 00:46:58;;;;;;;5.70;2.33;;;;;;;;;;5028167;28;20424;-61
2021/12/23 00:49:25;;;;;;;5.03;2.57;;;;;;;;;;5027371;28;20120;-61
2021/12/23 00:51:53;;;;;;;9.47;2.30;;;;;;;;;;5026865;28;20079;-61
2021/12/23 00:54:20;;;;;;;8.67;3.13;;;;;;;;;;5026928;28;20109;-61
2021/12/23 00:56:49;;;;;;;7.03;3.10;;;;;;;;;;5029853;28;20099;-62
2021/12/23 00:59:16;;;;;;;7.67;3.13;;;;;;;;;;5032737;28;20021;-61
2021/12/23 01:01:43;;;;;;;10.20;4.23;;;;;;;;;;5032574;28;20029;-61
2021/12/23 01:04:10;;;;;;;16.37;5.07;;;;;;;;;;5032515;28;20364;-61
2021/12/23 01:06:36;;;;;;;5.57;3.00;;;;;;;;;;5032280;28;20056;-61
2021/12/23 01:09:03;;;;;;;13.70;4.00;;;;;;;;;;5028719;28;20034;-61
2021/12/23 01:11:30;;;;;;;13.70;5.73;;;;;;;;;;5026922;28;20080;-61
2021/12/23 01:14:24;;;;;;;14.87;8.37;;;;;;;;;;5026775;28;20040;-61
2021/12/23 01:17:12;;;;;;;8.30;4.47;;;;;;;;;;5026717;28;20107;-61
2021/12/23 01:19:39;;;;;;;11.50;3.23;;;;;;;;;;5030791;28;20029;-61
2021/12/23 01:22:07;;;;;;;19.90;4.20;;;;;;;;;;5032204;28;20067;-61
2021/12/23 01:24:34;;;;;;;5.63;3.00;;;;;;;;;;5032327;28;20025;-61
2021/12/23 01:27:01;;;;;;;8.57;3.10;;;;;;;;;;5032267;28;20029;-60
2021/12/23 01:29:28;;;;;;;8.93;4.10;;;;;;;;;;5031556;28;20056;-61
2021/12/23 01:31:54;;;;;;;9.37;3.40;;;;;;;;;;5027721;28;20037;-61
2021/12/23 01:34:21;;;;;;;14.10;3.70;;;;;;;;;;5026680;28;20060;-61
2021/12/23 01:36:48;;;;;;;13.50;4.27;;;;;;;;;;5026605;28;20028;-61
2021/12/23 01:39:15;;;;;;;11.17;3.03;;;;;;;;;;5026527;28;20018;-60
2021/12/23 01:41:41;;;;;;;29.97;11.60;;;;;;;;;;5030163;28;20097;-61
2021/12/23 01:44:08;;;;;;;13.13;5.57;;;;;;;;;;5032165;28;20021;-60
2021/12/23 01:46:35;;;;;;;9.30;3.57;;;;;;;;;;5031420;28;20116;-61
2021/12/23 01:49:02;;;;;;;12.80;4.50;;;;;;;;;;5032128;28;20357;-61
2021/12/23 01:51:28;;;;;;;10.33;3.80;;;;;;;;;;5032162;28;20483;-60
2021/12/23 01:53:55;;;;;;;11.40;5.33;;;;;;;;;;5028221;28;20021;-61
2021/12/23 01:56:24;;;;;;;9.70;5.30;;;;;;;;;;5026521;28;20148;-61
2021/12/23 01:58:51;;;;;;;7.87;4.10;;;;;;;;;;5028548;28;20044;-61
2021/12/23 02:01:18;;;;;;;6.93;3.40;;;;;;;;;;5030393;28;20017;-60
2021/12/23 02:03:45;;;;;;;6.23;3.10;;;;;;;;;;5032797;28;20103;-60
2021/12/23 02:06:11;;;;;;;6.83;3.57;;;;;;;;;;5035848;28;20498;-60
2021/12/23 02:08:39;;;;;;;11.20;3.83;;;;;;;;;;5035846;28;20052;-61
2021/12/23 02:11:08;;;;;;;11.83;4.10;;;;;;;;;;5035604;28;20029;-60
2021/12/23 02:13:35;;;;;;;11.00;4.43;;;;;;;;;;5035730;28;20092;-60
2021/12/23 02:16:02;;;;;;;16.23;5.53;;;;;;;;;;5032183;28;20845;-60
2021/12/23 02:18:29;;;;;;;10.33;4.60;;;;;;;;;;5029449;28;20018;-60
2021/12/23 02:20:56;;;;;;;12.47;4.60;;;;;;;;;;5029906;28;20118;-60
2021/12/23 02:23:23;;;;;;;6.30;3.73;;;;;;;;;;5030003;28;20030;-61
2021/12/23 02:25:50;;;;;;;13.03;4.30;;;;;;;;;;5032707;28;20045;-60
2021/12/23 02:28:20;;;;;;;16.73;4.73;;;;;;;;;;5035322;28;20124;-60
2021/12/23 02:30:51;;;;;;;13.30;4.73;;;;;;;;;;5035295;28;20034;-60
2021/12/23 02:33:19;;;;;;;9.90;4.23;;;;;;;;;;5035005;28;20025;-60
2021/12/23 02:35:46;;;;;;;12.63;4.40;;;;;;;;;;5035069;28;20077;-60
2021/12/23 02:38:12;;;;;;;9.43;3.80;;;;;;;;;;5032177;28;20053;-60
2021/12/23 02:40:40;;;;;;;9.67;4.10;;;;;;;;;;5029844;28;20029;-60
2021/12/23 02:43:09;;;;;;;9.00;5.23;;;;;;;;;;5029492;28;20025;-60
2021/12/23 02:45:36;;;;;;;16.50;5.00;;;;;;;;;;5029741;28;20472;-60
2021/12/23 02:48:02;;;;;;;7.90;3.80;;;;;;;;;;5031681;28;20072;-60
2021/12/23 02:50:29;;;;;;;6.20;3.63;;;;;;;;;;5034839;28;20029;-60
2021/12/23 02:52:58;;;;;;;7.33;3.50;;;;;;;;;;5034910;28;20087;-60
2021/12/23 02:55:25;;;;;;;11.67;3.90;;;;;;;;;;5034836;28;20037;-60
2021/12/23 02:57:52;;;;;;;11.10;4.40;;;;;;;;;;5034772;28;20025;-60
2021/12/23 03:00:20;;;;;;;10.13;3.50;;;;;;;;;;5031927;28;20853;-60
2021/12/23 03:02:47;;;;;;;6.40;2.83;;;;;;;;;;5029095;28;20018;-60
2021/12/23 03:05:14;;;;;;;7.27;3.60;;;;;;;;;;5028922;28;20354;-60
2021/12/23 03:07:40;;;;;;;7.83;3.87;;;;;;;;;;5029093;28;20025;-60
2021/12/23 03:10:08;;;;;;;10.60;4.40;;;;;;;;;;5030035;28;20489;-60
2021/12/23 03:12:35;;;;;;;8.93;3.30;;;;;;;;;;5034558;28;20109;-60
2021/12/23 03:15:02;;;;;;;9.03;3.60;;;;;;;;;;5034378;28;20036;-60
2021/12/23 03:17:30;;;;;;;9.83;3.77;;;;;;;;;;5034604;28;20026;-60
2021/12/23 03:19:57;;;;;;;7.93;3.60;;;;;;;;;;5034079;28;20554;-60
2021/12/23 03:22:24;;;;;;;6.40;3.00;;;;;;;;;;5032192;28;20029;-60
2021/12/23 03:24:51;;;;;;;9.37;3.10;;;;;;;;;;5028867;28;20488;-60
2021/12/23 03:27:18;;;;;;;7.73;2.87;;;;;;;;;;5028583;28;20017;-60
2021/12/23 03:29:45;;;;;;;7.47;2.90;;;;;;;;;;5028789;28;20415;-60
2021/12/23 03:32:11;;;;;;;5.73;3.50;;;;;;;;;;5030234;28;20104;-60
2021/12/23 03:34:38;;;;;;;5.30;2.60;;;;;;;;;;5034237;28;20099;-60
2021/12/23 03:37:05;;;;;;;9.77;3.40;;;;;;;;;;5033609;28;20477;-60
2021/12/23 03:39:32;;;;;;;8.90;3.43;;;;;;;;;;5034104;28;20029;-60
2021/12/23 03:41:59;;;;;;;10.43;3.67;;;;;;;;;;5034211;28;20400;-60
2021/12/23 03:44:26;;;;;;;6.67;3.10;;;;;;;;;;5032219;28;20014;-60
2021/12/23 03:46:52;;;;;;;9.73;2.90;;;;;;;;;;5028291;28;20059;-60
2021/12/23 03:49:19;;;;;;;7.30;3.00;;;;;;;;;;5028366;28;20033;-60
2021/12/23 03:51:46;;;;;;;7.30;3.33;;;;;;;;;;5028396;28;20056;-61
2021/12/23 03:54:13;;;;;;;6.47;3.20;;;;;;;;;;5028987;28;20018;-60
2021/12/23 03:56:40;;;;;;;9.47;3.83;;;;;;;;;;5033839;28;20403;-60
2021/12/23 03:59:06;;;;;;;5.63;2.80;;;;;;;;;;5033741;28;20040;-60
2021/12/23 04:01:33;;;;;;;10.03;3.57;;;;;;;;;;5033535;28;20040;-60
2021/12/23 04:04:00;;;;;;;8.10;2.77;;;;;;;;;;5033676;28;20125;-60
2021/12/23 04:06:27;;;;;;;7.93;3.37;;;;;;;;;;5032635;28;20079;-60
2021/12/23 04:08:55;;;;;;;6.83;3.03;;;;;;;;;;5027705;28;20056;-60
2021/12/23 04:11:22;;;;;;;11.03;2.87;;;;;;;;;;5028018;28;20112;-60
2021/12/23 04:13:52;;;;;;;6.83;3.40;;;;;;;;;;5027936;28;20557;-60
2021/12/23 04:16:19;;;;;;;6.53;3.53;;;;;;;;;;5028037;28;20029;-60
2021/12/23 04:18:47;;;;;;;7.00;2.97;;;;;;;;;;5033193;28;20029;-60
2021/12/23 04:21:17;;;;;;;8.07;2.93;;;;;;;;;;5033176;28;20108;-60
2021/12/23 04:23:44;;;;;;;7.13;2.97;;;;;;;;;;5032894;28;20026;-60
2021/12/23 04:26:10;;;;;;;4.60;2.57;;;;;;;;;;5033255;28;20033;-60
2021/12/23 04:28:45;;;;;;;8.10;3.00;;;;;;;;;;5032242;28;20022;-60
2021/12/23 04:31:11;;;;;;;;;;;;;;;;;;5027962;28;20036;-60
2021/12/23 04:33:38;;;;;;;14.50;3.33;;;;;;;;;;5027606;28;19912;-60
2021/12/23 04:36:05;;;;;;;4.43;2.60;;;;;;;;;;5027283;28;20114;-61
2021/12/23 04:38:32;;;;;;;4.73;2.30;;;;;;;;;;5027447;28;20029;-59
2021/12/23 04:40:59;;;;;;;6.67;2.40;;;;;;;;;;5032928;28;20048;-60
2021/12/23 04:43:25;;;;;;;6.37;2.73;;;;;;;;;;5033040;28;20022;-59
2021/12/23 04:45:52;;;;;;;7.87;2.77;;;;;;;;;;5033014;28;20022;-60
2021/12/23 04:48:19;;;;;;;7.20;2.93;;;;;;;;;;5032799;28;20017;-60
2021/12/23 04:50:46;;;;;;;6.73;2.37;;;;;;;;;;5032307;28;20040;-60
2021/12/23 04:53:12;;;;;;;7.20;2.57;;;;;;;;;;5027119;28;20022;-60
2021/12/23 04:55:39;;;;;;;4.30;2.90;;;;;;;;;;5027459;28;20033;-60
2021/12/23 04:58:06;;;;;;;4.77;2.77;;;;;;;;;;5027448;28;20067;-59
2021/12/23 05:00:32;;;;;;;6.23;2.53;;;;;;;;;;5027231;28;20045;-60
2021/12/23 05:02:59;;;;;;;7.90;2.50;;;;;;;;;;5032635;28;20605;-59
2021/12/23 05:05:26;;;;;;;5.33;2.60;;;;;;;;;;5032605;28;20029;-59
2021/12/23 05:07:53;;;;;;;8.10;3.00;;;;;;;;;;5032707;28;20021;-60
2021/12/23 05:10:20;;;;;;;5.43;3.20;;;;;;;;;;5031862;28;20472;-60
2021/12/23 05:12:47;;;;;;;6.83;2.57;;;;;;;;;;5032375;28;20041;-60
2021/12/23 05:15:16;;;;;;;5.20;2.93;;;;;;;;;;5026903;28;20029;-60
2021/12/23 05:17:44;;;;;;;6.70;2.23;;;;;;;;;;5027051;28;20075;-60
2021/12/23 05:20:12;;;;;;;9.67;3.37;;;;;;;;;;5027161;28;20105;-60
2021/12/23 05:22:39;;;;;;;4.37;2.27;;;;;;;;;;5026923;28;20108;-60
2021/12/23 05:25:06;;;;;;;5.30;2.40;;;;;;;;;;5031737;28;20053;-60
2021/12/23 05:27:33;;;;;;;8.00;2.70;;;;;;;;;;5032283;28;20472;-59
2021/12/23 05:30:01;;;;;;;5.60;2.83;;;;;;;;;;5032218;28;20041;-59
2021/12/23 05:32:29;;;;;;;5.03;2.50;;;;;;;;;;5031956;28;20029;-59
2021/12/23 05:34:55;;;;;;;5.07;3.10;;;;;;;;;;5032297;28;20096;-59
2021/12/23 05:37:22;;;;;;;4.17;2.30;;;;;;;;;;5026877;28;20033;-60
2021/12/23 05:39:49;;;;;;;4.77;2.97;;;;;;;;;;5026979;28;20080;-59
2021/12/23 05:42:15;;;;;;;5.90;2.90;;;;;;;;;;5025404;28;20805;-60
2021/12/23 05:44:42;;;;;;;5.10;2.57;;;;;;;;;;5026806;28;20571;-59
2021/12/23 05:47:09;;;;;;;11.30;2.43;;;;;;;;;;5031382;28;20032;-59
2021/12/23 05:49:36;;;;;;;6.10;2.77;;;;;;;;;;5032164;28;20025;-59
2021/12/23 05:52:03;;;;;;;6.87;2.83;;;;;;;;;;5032146;28;20037;-59
2021/12/23 05:54:30;;;;;;;6.07;3.53;;;;;;;;;;5031993;28;20036;-59
2021/12/23 05:57:02;;;;;;;6.73;2.63;;;;;;;;;;5031719;28;20058;-59
2021/12/23 05:59:29;;;;;;;7.13;2.53;;;;;;;;;;5027167;28;20100;-61
2021/12/23 06:01:56;;;;;;;4.03;2.30;;;;;;;;;;5026584;28;20416;-61
2021/12/23 06:04:23;;;;;;;5.07;2.77;;;;;;;;;;5026815;28;20026;-61
2021/12/23 06:06:50;;;;;;;6.97;2.93;;;;;;;;;;5026634;28;20018;-62
2021/12/23 06:09:17;;;;;;;12.17;3.40;;;;;;;;;;5030705;28;20083;-62
2021/12/23 06:11:43;;;;;;;7.67;2.90;;;;;;;;;;5031529;28;20109;-61
2021/12/23 06:14:10;;;;;;;9.17;3.20;;;;;;;;;;5031858;28;20049;-61
2021/12/23 06:16:37;;;;;;;6.53;3.17;;;;;;;;;;5031944;28;20028;-60
2021/12/23 06:19:04;;;;;;;7.00;2.63;;;;;;;;;;5031230;28;20021;-61
2021/12/23 06:21:32;;;;;;;4.17;2.30;;;;;;;;;;5026371;28;20476;-61
2021/12/23 06:23:59;;;;;;;6.00;2.93;;;;;;;;;;5026811;28;20033;-61
2021/12/23 06:26:26;;;;;;;6.97;3.00;;;;;;;;;;5026601;28;20159;-61
2021/12/23 06:28:53;;;;;;;4.87;2.53;;;;;;;;;;5026082;28;20022;-60
2021/12/23 06:31:19;;;;;;;8.50;2.97;;;;;;;;;;5031304;28;20037;-60
2021/12/23 06:33:46;;;;;;;6.57;2.20;;;;;;;;;;5047896;28;20036;-61
2021/12/23 06:36:17;;;;;;;12.30;3.17;;;;;;;;;;5046910;28;20059;-61
2021/12/23 06:38:44;;;;;;;8.27;3.70;;;;;;;;;;5032974;28;20031;-61
2021/12/23 06:41:12;;;;;;;4.73;2.60;;;;;;;;;;5041254;28;20026;-61
2021/12/23 06:43:40;;;;;;;5.03;2.33;;;;;;;;;;5045398;28;20079;-60
2021/12/23 06:46:06;;;;;;;3.20;2.00;;;;;;;;;;5044418;28;20048;-61
2021/12/23 06:48:34;;;;;;;5.13;2.67;;;;;;;;;;5033746;28;20029;-61
2021/12/23 06:51:00;;;;;;;4.57;2.60;;;;;;;;;;5049338;28;20383;-61
2021/12/23 06:53:28;;;;;;;17.80;3.70;;;;;;;;;;5053328;28;20021;-61
2021/12/23 06:55:55;;;;;;;4.53;2.53;;;;;;;;;;5042011;28;20063;-61
2021/12/23 06:58:23;;;;;;;6.83;3.97;;;;;;;;;;5034968;28;20025;-61
2021/12/23 07:00:51;;;;;;;3.80;2.30;;;;;;;;;;5034827;28;20029;-61
2021/12/23 07:03:18;;;;;;;4.47;2.60;;;;;;;;;;5035040;28;20036;-61
2021/12/23 07:05:44;;;;;;;4.13;2.40;;;;;;;;;;5031054;28;20025;-61
2021/12/23 07:08:26;;;;;;;8.90;2.87;;;;;;;;;;5029914;28;20060;-61
2021/12/23 07:10:53;;;;;;;5.83;2.80;;;;;;;;;;5029284;28;20384;-61
2021/12/23 07:13:20;;;;;;;5.27;2.70;;;;;;;;;;5029594;28;20792;-61
2021/12/23 07:15:47;;;;;;;4.50;2.73;;;;;;;;;;5033262;28;20088;-61
2021/12/23 07:18:14;;;;;;;5.23;3.07;;;;;;;;;;5034799;28;20033;-60
2021/12/23 07:20:41;;;;;;;5.07;2.40;;;;;;;;;;5034410;28;20029;-61
2021/12/23 07:23:07;;;;;;;5.87;3.23;;;;;;;;;;5034792;28;20025;-61
2021/12/23 07:25:35;;;;;;;5.23;2.50;;;;;;;;;;5033918;28;20022;-61
2021/12/23 07:28:02;;;;;;;4.07;2.10;;;;;;;;;;5030670;28;20044;-61
2021/12/23 07:30:29;;;;;;;4.87;3.00;;;;;;;;;;5029159;28;20121;-61
2021/12/23 07:32:56;;;;;;;5.23;2.73;;;;;;;;;;5029484;28;20025;-61
2021/12/23 07:35:23;;;;;;;4.03;2.33;;;;;;;;;;5029371;28;20029;-61
2021/12/23 07:37:50;;;;;;;7.47;2.93;;;;;;;;;;5032464;28;20358;-61
2021/12/23 07:40:17;;;;;;;4.27;2.63;;;;;;;;;;5033601;28;20033;-61
2021/12/23 07:42:53;;;;;;;4.17;2.37;;;;;;;;;;5034309;28;20044;-61
2021/12/23 07:45:21;;;;;;;6.70;2.90;;;;;;;;;;5034421;28;20022;-61
2021/12/23 07:47:47;;;;;;;7.60;2.70;;;;;;;;;;5034295;28;20029;-61
2021/12/23 07:50:14;;;;;;;4.87;2.70;;;;;;;;;;5029505;28;20329;-61
2021/12/23 07:52:41;;;;;;;3.77;2.20;;;;;;;;;;5028960;28;20079;-61
2021/12/23 07:55:08;;;;;;;4.10;2.10;;;;;;;;;;5028615;28;20025;-61
2021/12/23 07:57:35;;;;;;;5.73;2.23;;;;;;;;;;5028702;28;20093;-61
2021/12/23 08:00:04;;;;;;;7.20;2.47;;;;;;;;;;5031565;28;20263;-61
2021/12/23 08:02:30;;;;;;;5.47;2.30;;;;;;;;;;5033783;28;20420;-61
2021/12/23 08:04:57;;;;;;;5.23;2.47;;;;;;;;;;5033932;28;20018;-61
2021/12/23 08:07:24;;;;;;;6.10;2.40;;;;;;;;;;5033691;28;20254;-61
2021/12/23 08:09:51;;;;;;;4.30;2.60;;;;;;;;;;5033000;28;20534;-61
2021/12/23 08:12:18;;;;;;;4.10;2.40;;;;;;;;;;5030220;28;20765;-61
2021/12/23 08:14:45;;;;;;;9.60;2.87;;;;;;;;;;5028609;28;20026;-61
2021/12/23 08:17:12;;;;;;;5.73;2.30;;;;;;;;;;5028471;28;20026;-61
2021/12/23 08:19:38;;;;;;;4.97;2.47;;;;;;;;;;5028342;28;20017;-61
2021/12/23 08:22:06;;;;;;;4.53;2.57;;;;;;;;;;5030926;28;20040;-61
2021/12/23 08:24:32;;;;;;;5.87;1.77;;;;;;;;;;5033452;28;20021;-61
2021/12/23 08:26:59;;;;;;;3.37;2.13;;;;;;;;;;5033341;28;20036;-61
2021/12/23 08:29:27;;;;;;;4.57;2.20;;;;;;;;;;5033273;28;20025;-61
2021/12/23 08:31:54;;;;;;;6.03;2.60;;;;;;;;;;5033069;28;20029;-61
2021/12/23 08:34:24;;;;;;;4.77;3.00;;;;;;;;;;5030091;28;20542;-61
2021/12/23 08:36:52;;;;;;;3.57;2.13;;;;;;;;;;5027945;28;20021;-61
2021/12/23 08:39:19;;;;;;;4.80;2.67;;;;;;;;;;5028213;28;20064;-61
2021/12/23 08:41:45;;;;;;;6.77;2.03;;;;;;;;;;5027855;28;20313;-61
2021/12/23 08:44:12;;;;;;;5.53;1.90;;;;;;;;;;5030599;28;20366;-62
2021/12/23 08:46:39;;;;;;;3.80;2.20;;;;;;;;;;5032824;28;20476;-61
2021/12/23 08:49:07;;;;;;;5.07;2.60;;;;;;;;;;5033046;28;20033;-61
2021/12/23 08:51:34;;;;;;;4.17;1.97;;;;;;;;;;5032918;28;20034;-61
2021/12/23 08:54:01;;;;;;;4.30;2.17;;;;;;;;;;5032994;28;20269;-61
2021/12/23 08:56:28;;;;;;;4.00;2.07;;;;;;;;;;5029442;28;20882;-61
2021/12/23 08:58:55;;;;;;;6.27;1.87;;;;;;;;;;5027968;28;20669;-60
2021/12/23 09:01:22;;;;;;;3.13;2.03;;;;;;;;;;5027858;28;20024;-61
2021/12/23 09:03:49;;;;;;;4.00;1.90;;;;;;;;;;5027744;28;20270;-61
2021/12/23 09:06:16;;;;;;;5.90;2.60;;;;;;;;;;5030043;28;20251;-60
2021/12/23 09:08:42;;;;;;;5.57;2.47;;;;;;;;;;5031542;28;20254;-61
2021/12/23 09:11:09;;;;;;;3.63;1.73;;;;;;;;;;5024652;28;20295;-60
2021/12/23 09:13:36;;;;;;;4.77;2.03;;;;;;;;;;5032348;28;20251;-61
2021/12/23 09:16:03;;;;;;;6.40;2.43;;;;;;;;;;5031477;28;20886;-60
2021/12/23 09:18:30;;;;;;;4.70;2.30;;;;;;;;;;5030114;28;20259;-61
2021/12/23 09:20:57;;;;;;;8.57;2.60;;;;;;;;;;5027296;28;20353;-60
2021/12/23 09:23:24;;;;;;;3.50;1.70;;;;;;;;;;5027617;28;20255;-61
2021/12/23 09:25:52;;;;;;;3.10;1.63;;;;;;;;;;5027373;28;20290;-61
2021/12/23 09:33:41;;;;;;;3.07;1.90;;;;;;;;;;5032735;28;20321;-61
2021/12/23 09:36:08;;;;;;;2.77;1.70;;;;;;;;;;5032243;28;20326;-60
2021/12/23 09:38:35;;;;;;;4.73;1.60;;;;;;;;;;5032202;28;20595;-61
2021/12/23 09:41:05;;;;;;;2.80;1.63;;;;;;;;;;5028759;28;20274;-61
2021/12/23 09:43:32;;;;;;;4.67;2.57;;;;;;;;;;5027263;28;20749;-60
2021/12/23 09:45:59;;;;;;;4.73;1.60;;;;;;;;;;5027360;28;20259;-61
2021/12/23 09:48:31;;;;;;;3.70;2.10;;;;;;;;;;5027391;28;20251;-60
2021/12/23 09:51:02;;;;;;;4.63;1.90;;;;;;;;;;5029364;28;20775;-61
2021/12/23 09:53:30;;;;;;;4.07;2.23;;;;;;;;;;5032281;28;20369;-60
2021/12/23 09:55:58;;;;;;;5.30;2.63;;;;;;;;;;5032250;28;20335;-60
2021/12/23 09:58:25;;;;;;;4.87;2.40;;;;;;;;;;5032295;28;20301;-61
2021/12/23 10:00:54;;;;;;;6.10;1.97;;;;;;;;;;5031662;28;20255;-60
2021/12/23 10:03:22;;;;;;;3.70;1.80;;;;;;;;;;5028741;28;20294;-60
2021/12/23 10:05:50;;;;;;;5.67;2.10;;;;;;;;;;5026867;28;20305;-61
2021/12/23 10:08:17;;;;;;;3.33;1.83;;;;;;;;;;5027071;28;20789;-61
2021/12/23 10:38:02;;;;;;;6.75;2.47;;;;;;;;;;5035542;28;20332;-60
2021/12/23 10:40:30;;;;;;;5.90;2.50;;;;;;;;;;5035458;28;20041;-60
2021/12/23 10:42:57;;;;;;;7.30;2.50;;;;;;;;;;5035104;28;20348;-60
2021/12/23 10:45:24;;;;;;;5.13;2.30;;;;;;;;;;5034890;28;20298;-60
2021/12/23 10:48:00;;;;;;;5.20;2.70;;;;;;;;;;5031696;28;20253;-60
2021/12/23 10:50:41;;;;;;;3.60;1.80;;;;;;;;;;5030116;28;20325;-61
2021/12/23 10:53:30;;;;;;;5.83;2.20;;;;;;;;;;5030033;28;20314;-60
2021/12/23 10:59:05;;;;;;;3.43;1.90;;;;;;;;;;5035146;28;21559;-60
2021/12/23 11:01:32;;;;;;;3.87;2.03;;;;;;;;;;5035027;28;20259;-61
2021/12/23 11:04:04;;;;;;;3.60;1.80;;;;;;;;;;5034504;28;20746;-60
2021/12/23 11:06:37;;;;;;;5.60;2.50;;;;;;;;;;5034938;28;20270;-60
2021/12/23 11:41:59;;;;;;;11.27;5.73;;;;;;;;;;5031102;28;20041;-61
2021/12/23 11:44:30;;;;;;;8.23;4.37;;;;;;;;;;5033863;28;20302;-60
2021/12/23 11:47:00;;;;;;;8.50;4.07;;;;;;;;;;5034320;28;20259;-60
2021/12/23 11:49:27;;;;;;;5.50;3.20;;;;;;;;;;5034330;28;20308;-60
2021/12/23 11:51:55;;;;;;;6.43;3.70;;;;;;;;;;5033907;28;20270;-60
2021/12/23 11:54:25;;;;;;;4.23;2.80;;;;;;;;;;5030827;28;20261;-60
2021/12/23 11:56:58;;;;;;;5.50;3.50;;;;;;;;;;5028755;28;20267;-60
2021/12/23 11:59:26;;;;;;;5.87;3.80;;;;;;;;;;5028814;28;20267;-60
2021/12/23 12:01:54;;;;;;;7.43;4.37;;;;;;;;;;5028564;28;22425;-61
2021/12/23 12:04:23;;;;;;;5.17;3.10;;;;;;;;;;5032078;28;20350;-60
2021/12/23 12:06:50;;;;;;;10.37;3.70;;;;;;;;;;5033864;28;20385;-61
2021/12/23 12:09:18;;;;;;;4.40;2.90;;;;;;;;;;5033844;28;20341;-61
2021/12/23 12:12:11;;;;;;;4.43;2.57;;;;;;;;;;5033112;28;20287;-60
2021/12/23 12:14:41;;;;;;;5.57;3.10;;;;;;;;;;5033446;28;20761;-61
2021/12/23 12:17:26;;;;;;;7.37;2.87;;;;;;;;;;5028700;28;20625;-60
2021/12/23 12:19:54;;;;;;;11.27;3.15;;;;;;;;;;5028547;28;20335;-60
2021/12/23 12:22:39;;;;;;;5.20;2.60;;;;;;;;;;5028456;28;20023;-60
2021/12/23 12:25:06;;;;;;;8.75;2.65;;;;;;;;;;5028867;28;20831;-60
2021/12/23 12:27:34;;;;;;;6.10;2.50;;;;;;;;;;5032647;28;20033;-60
2021/12/23 12:30:10;;;;;;;4.03;2.37;;;;;;;;;;5033337;28;20294;-61
2021/12/23 12:32:37;;;;;;;5.13;3.00;;;;;;;;;;5033316;28;20274;-60
2021/12/23 12:35:17;;;;;;;6.17;2.30;;;;;;;;;;5033341;28;20274;-60
2021/12/23 12:37:44;;;;;;;5.97;2.50;;;;;;;;;;5031044;28;20344;-60
2021/12/23 12:40:11;;;;;;;6.73;3.10;;;;;;;;;;5028140;28;20803;-60
2021/12/23 12:42:43;;;;;;;5.93;2.93;;;;;;;;;;5028329;28;20255;-60
2021/12/23 12:45:15;;;;;;;5.80;2.80;;;;;;;;;;5028282;28;20259;-60
2021/12/23 12:47:49;;;;;;;6.40;2.70;;;;;;;;;;5028933;28;20266;-60
2021/12/23 12:50:26;;;;;;;5.93;3.33;;;;;;;;;;5032524;28;20297;-60
2021/12/23 12:53:00;;;;;;;6.37;2.83;;;;;;;;;;5032986;28;20270;-61
2021/12/23 12:55:27;;;;;;;7.13;2.90;;;;;;;;;;5033151;28;20784;-60
2021/12/23 12:57:54;;;;;;;5.97;2.50;;;;;;;;;;5032797;28;20267;-60
2021/12/23 13:00:28;;;;;;;5.20;2.30;;;;;;;;;;5030435;28;20259;-60
2021/12/23 13:02:59;;;;;;;6.43;3.33;;;;;;;;;;5027673;28;20330;-60
2021/12/23 13:05:33;;;;;;;5.17;2.60;;;;;;;;;;5027794;28;20262;-60
2021/12/23 13:08:05;;;;;;;4.07;2.35;;;;;;;;;;5027160;28;20266;-60
2021/12/23 13:10:33;;;;;;;6.00;3.33;;;;;;;;;;5030224;28;20495;-60
2021/12/23 13:13:06;;;;;;;5.83;3.70;;;;;;;;;;5032488;28;20279;-61
2021/12/23 13:15:34;;;;;;;9.33;3.57;;;;;;;;;;5032704;28;20665;-60
2021/12/23 13:18:21;;;;;;;13.67;5.47;;;;;;;;;;5032306;28;20255;-60
2021/12/23 13:20:50;;;;;;;17.83;7.27;;;;;;;;;;5032212;28;20274;-60
2021/12/23 13:23:23;;;;;;;14.27;6.73;;;;;;;;;;5028150;28;20267;-60
2021/12/23 13:25:54;;;;;;;12.10;6.43;;;;;;;;;;5027480;28;20277;-61
2021/12/23 13:28:27;;;;;;;14.67;6.60;;;;;;;;;;5027440;28;20269;-60
2021/12/23 13:30:55;;;;;;;14.77;5.80;;;;;;;;;;5027393;28;20838;-60
2021/12/23 13:33:22;;;;;;;10.10;5.33;;;;;;;;;;5030627;28;20270;-60
2021/12/23 13:35:49;;;;;;;11.07;3.80;;;;;;;;;;5032433;28;20254;-60
2021/12/23 13:38:28;;;;;;;10.77;6.13;;;;;;;;;;5032494;28;20259;-60
2021/12/23 13:40:55;;;;;;;5.83;3.60;;;;;;;;;;5032140;28;20259;-60
2021/12/23 13:43:31;;;;;;;6.83;3.63;;;;;;;;;;5031941;28;20275;-61
2021/12/23 13:46:08;;;;;;;6.37;3.83;;;;;;;;;;5027284;28;21629;-60
2021/12/23 13:48:53;;;;;;;5.60;3.10;;;;;;;;;;5027358;28;20350;-61
2021/12/23 13:51:22;;;;;;;8.30;2.88;;;;;;;;;;5027116;28;20293;-61
2021/12/23 13:53:49;;;;;;;6.47;3.13;;;;;;;;;;5027425;28;20042;-60
2021/12/23 13:56:16;;;;;;;8.47;3.60;;;;;;;;;;5036281;28;20903;-60
2021/12/23 13:58:43;;;;;;;7.03;3.67;;;;;;;;;;5036046;28;20835;-61
2021/12/23 14:01:10;;;;;;;13.67;4.27;;;;;;;;;;5036196;28;20849;-60
2021/12/23 14:03:36;;;;;;;7.33;3.60;;;;;;;;;;5035857;28;20259;-61
2021/12/23 14:06:03;;;;;;;8.17;3.73;;;;;;;;;;5035420;28;21121;-61
2021/12/23 14:08:32;;;;;;;11.23;4.47;;;;;;;;;;5030912;28;20273;-61
2021/12/23 14:11:00;;;;;;;8.67;4.30;;;;;;;;;;5031029;28;21479;-61
2021/12/23 14:13:27;;;;;;;7.67;3.87;;;;;;;;;;5030802;28;20273;-61
2021/12/23 14:15:54;;;;;;;7.23;4.03;;;;;;;;;;5030829;28;20423;-61
2021/12/23 14:18:32;;;;;;;9.53;4.20;;;;;;;;;;5035838;28;20079;-61
2021/12/23 14:23:33;;;;;;;8.97;3.93;;;;;;;;;;5034932;28;20026;-61
2021/12/23 14:26:06;;;;;;;8.60;4.20;;;;;;;;;;5035291;28;20026;-61
2021/12/23 14:28:32;;;;;;;7.43;4.63;;;;;;;;;;5034342;28;20056;-61
2021/12/23 14:30:59;;;;;;;12.60;5.17;;;;;;;;;;5030310;28;20038;-61
2021/12/23 14:33:29;;;;;;;10.67;6.53;;;;;;;;;;5029593;28;20088;-61
2021/12/23 14:35:56;;;;;;;12.70;7.23;;;;;;;;;;5030330;28;20026;-61
2021/12/23 14:38:26;;;;;;;16.33;7.17;;;;;;;;;;5030393;28;20018;-61
2021/12/23 14:41:00;;;;;;;8.57;5.37;;;;;;;;;;5035076;28;20496;-61
2021/12/23 14:43:27;;;;;;;9.27;5.23;;;;;;;;;;5035337;28;20072;-61
2021/12/23 14:45:58;;;;;;;9.70;4.30;;;;;;;;;;5034991;28;20022;-61
2021/12/23 14:48:31;;;;;;;10.07;4.47;;;;;;;;;;5035171;28;20025;-62
2021/12/23 14:51:01;;;;;;;8.00;3.80;;;;;;;;;;5013808;28;20052;-61
2021/12/23 14:53:29;;;;;;;15.00;4.40;;;;;;;;;;5011573;28;20030;-61
2021/12/23 14:55:57;;;;;;;9.83;5.10;;;;;;;;;;5029257;28;20559;-62
2021/12/23 14:58:24;;;;;;;8.57;4.63;;;;;;;;;;5029610;28;20017;-61
2021/12/23 15:00:52;;;;;;;16.13;5.70;;;;;;;;;;5030570;28;20180;-62
2021/12/23 15:03:22;;;;;;;7.60;5.40;;;;;;;;;;5034478;28;20033;-62
2021/12/23 15:05:50;;;;;;;9.87;5.27;;;;;;;;;;5033553;28;20492;-61
2021/12/23 15:08:17;;;;;;;12.73;4.23;;;;;;;;;;5034892;28;20166;-62
2021/12/23 15:10:43;;;;;;;10.53;5.63;;;;;;;;;;5034183;28;20411;-63
2021/12/23 15:13:19;;;;;;;12.87;5.03;;;;;;;;;;5032924;28;20025;-61
2021/12/23 15:15:47;;;;;;;9.17;4.77;;;;;;;;;;5029495;28;20025;-61
2021/12/23 15:21:34;;;;;;;9.77;4.47;;;;;;;;;;4998585;28;20037;-61
2021/12/23 15:24:14;;;;;;;13.03;5.43;;;;;;;;;;5012809;28;20018;-61
2021/12/23 15:26:48;;;;;;;8.77;5.00;;;;;;;;;;5014484;28;20033;-61
2021/12/23 15:29:17;;;;;;;10.35;5.78;;;;;;;;;;5021108;28;20144;-61
2021/12/23 15:31:53;;;;;;;12.33;4.80;;;;;;;;;;5034207;28;20045;-61
2021/12/23 15:34:20;;;;;;;13.10;6.03;;;;;;;;;;5034487;28;20128;-61
2021/12/23 15:36:47;;;;;;;8.57;4.23;;;;;;;;;;5029284;28;20083;-61
2021/12/23 15:39:17;;;;;;;11.23;4.00;;;;;;;;;;5028505;28;20112;-62
2021/12/23 15:41:44;;;;;;;7.93;3.77;;;;;;;;;;5028937;28;20504;-62
2021/12/23 15:44:11;;;;;;;7.93;4.20;;;;;;;;;;5029038;28;20103;-62
2021/12/23 15:46:37;;;;;;;9.07;4.03;;;;;;;;;;5033364;28;20029;-61
2021/12/23 15:49:04;;;;;;;9.80;4.07;;;;;;;;;;5033887;28;20048;-61
2021/12/23 15:51:31;;;;;;;9.83;4.20;;;;;;;;;;5033807;28;20033;-62
2021/12/23 15:53:58;;;;;;;7.90;3.63;;;;;;;;;;5034010;28;20029;-62
2021/12/23 15:56:24;;;;;;;6.03;3.97;;;;;;;;;;5033867;28;20772;-62
2021/12/23 15:58:51;;;;;;;8.33;4.40;;;;;;;;;;5028951;28;20091;-62
2021/12/23 16:01:18;;;;;;;6.83;3.53;;;;;;;;;;5028350;28;20484;-61
2021/12/23 16:03:47;;;;;;;9.00;4.40;;;;;;;;;;5028668;28;20096;-62
2021/12/23 16:09:00;;;;;;;7.53;3.93;;;;;;;;;;5033198;28;20492;-61